sensor_id;sensor_type;location;lat;lon;timestamp;P1;durP1;ratioP1;P2;durP2;ratioP2
27275;SDS011;14772;47.398;8.080;2022-12-22T00:01:10;23.23;;;12.80;;
27275;SDS011;14772;47.398;8.080;2022-12-22T00:06:09;20.77;;;11.07;;
27275;SDS011;14772;47.398;8.080;2022-12-22T00:11:09;21.90;;;11.70;;
27275;SDS011;14772;47.398;8.080;2022-12-22T00:16:08;21.03;;;10.90;;
27275;SDS011;14772;47.398;8.080;2022-12-22T00:21:05;22.03;;;10.93;;
27275;SDS011;14772;47.398;8.080;2022-12-22T00:26:06;22.27;;;11.37;;
27275;SDS011;14772;47.398;8.080;2022-12-22T00:31:04;20.40;;;11.03;;
27275;SDS011;14772;47.398;8.080;2022-12-22T00:36:01;17.93;;;9.63;;
27275;SDS011;14772;47.398;8.080;2022-12-22T00:40:59;18.47;;;8.90;;
27275;SDS011;14772;47.398;8.080;2022-12-22T00:45:56;16.73;;;8.60;;
27275;SDS011;14772;47.398;8.080;2022-12-22T00:50:55;16.23;;;8.30;;
27275;SDS011;14772;47.398;8.080;2022-12-22T00:55:52;15.63;;;7.43;;
27275;SDS011;14772;47.398;8.080;2022-12-22T01:00:49;14.53;;;6.90;;
27275;SDS011;14772;47.398;8.080;2022-12-22T01:05:47;16.00;;;7.47;;
27275;SDS011;14772;47.398;8.080;2022-12-22T01:10:44;14.53;;;6.17;;
27275;SDS011;14772;47.398;8.080;2022-12-22T01:15:42;13.27;;;6.03;;
27275;SDS011;14772;47.398;8.080;2022-12-22T01:20:39;13.47;;;6.03;;
27275;SDS011;14772;47.398;8.080;2022-12-22T01:25:36;13.87;;;5.77;;
27275;SDS011;14772;47.398;8.080;2022-12-22T01:30:34;14.10;;;6.17;;
27275;SDS011;14772;47.398;8.080;2022-12-22T01:35:32;14.40;;;6.50;;
27275;SDS011;14772;47.398;8.080;2022-12-22T01:40:30;13.40;;;5.83;;
27275;SDS011;14772;47.398;8.080;2022-12-22T01:45:28;14.27;;;6.43;;
27275;SDS011;14772;47.398;8.080;2022-12-22T01:50:28;12.43;;;5.27;;
27275;SDS011;14772;47.398;8.080;2022-12-22T01:55:28;14.07;;;5.37;;
27275;SDS011;14772;47.398;8.080;2022-12-22T02:00:25;12.43;;;5.57;;
27275;SDS011;14772;47.398;8.080;2022-12-22T02:05:22;11.80;;;5.07;;
27275;SDS011;14772;47.398;8.080;2022-12-22T02:10:24;12.57;;;5.17;;
27275;SDS011;14772;47.398;8.080;2022-12-22T02:15:28;12.63;;;5.13;;
27275;SDS011;14772;47.398;8.080;2022-12-22T02:20:33;12.23;;;4.97;;
27275;SDS011;14772;47.398;8.080;2022-12-22T02:25:35;12.33;;;4.80;;
27275;SDS011;14772;47.398;8.080;2022-12-22T02:30:34;12.13;;;4.33;;
27275;SDS011;14772;47.398;8.080;2022-12-22T02:35:34;13.87;;;4.17;;
27275;SDS011;14772;47.398;8.080;2022-12-22T02:40:35;12.47;;;4.13;;
27275;SDS011;14772;47.398;8.080;2022-12-22T02:45:36;10.67;;;3.87;;
27275;SDS011;14772;47.398;8.080;2022-12-22T02:50:38;10.27;;;3.87;;
27275;SDS011;14772;47.398;8.080;2022-12-22T02:55:37;9.80;;;4.00;;
27275;SDS011;14772;47.398;8.080;2022-12-22T03:00:34;11.57;;;4.57;;
27275;SDS011;14772;47.398;8.080;2022-12-22T03:05:31;11.07;;;4.30;;
27275;SDS011;14772;47.398;8.080;2022-12-22T03:10:29;11.10;;;4.30;;
27275;SDS011;14772;47.398;8.080;2022-12-22T03:15:26;14.77;;;5.10;;
27275;SDS011;14772;47.398;8.080;2022-12-22T03:20:23;10.83;;;4.23;;
27275;SDS011;14772;47.398;8.080;2022-12-22T03:25:20;12.60;;;4.40;;
27275;SDS011;14772;47.398;8.080;2022-12-22T03:30:18;11.60;;;4.67;;
27275;SDS011;14772;47.398;8.080;2022-12-22T03:35:15;11.57;;;4.23;;
27275;SDS011;14772;47.398;8.080;2022-12-22T03:40:14;13.37;;;4.40;;
27275;SDS011;14772;47.398;8.080;2022-12-22T03:45:11;11.20;;;4.37;;
27275;SDS011;14772;47.398;8.080;2022-12-22T03:50:09;11.83;;;4.00;;
27275;SDS011;14772;47.398;8.080;2022-12-22T03:55:07;10.43;;;3.97;;
27275;SDS011;14772;47.398;8.080;2022-12-22T04:00:06;10.43;;;3.63;;
27275;SDS011;14772;47.398;8.080;2022-12-22T04:05:06;10.60;;;3.67;;
27275;SDS011;14772;47.398;8.080;2022-12-22T04:10:06;10.03;;;3.40;;
27275;SDS011;14772;47.398;8.080;2022-12-22T04:15:06;10.47;;;3.70;;
27275;SDS011;14772;47.398;8.080;2022-12-22T04:20:07;9.73;;;3.30;;
27275;SDS011;14772;47.398;8.080;2022-12-22T04:25:07;13.83;;;3.33;;
27275;SDS011;14772;47.398;8.080;2022-12-22T04:30:06;10.70;;;3.10;;
27275;SDS011;14772;47.398;8.080;2022-12-22T04:35:06;11.53;;;3.00;;
27275;SDS011;14772;47.398;8.080;2022-12-22T04:40:06;10.37;;;2.80;;
27275;SDS011;14772;47.398;8.080;2022-12-22T04:45:05;7.77;;;2.60;;
27275;SDS011;14772;47.398;8.080;2022-12-22T04:50:05;7.10;;;2.40;;
27275;SDS011;14772;47.398;8.080;2022-12-22T04:55:04;10.80;;;2.53;;
27275;SDS011;14772;47.398;8.080;2022-12-22T05:00:03;8.63;;;2.30;;
27275;SDS011;14772;47.398;8.080;2022-12-22T05:05:01;8.13;;;2.23;;
27275;SDS011;14772;47.398;8.080;2022-12-22T05:09:59;7.77;;;2.30;;
27275;SDS011;14772;47.398;8.080;2022-12-22T05:14:56;9.90;;;2.30;;
27275;SDS011;14772;47.398;8.080;2022-12-22T05:19:53;7.37;;;2.20;;
27275;SDS011;14772;47.398;8.080;2022-12-22T05:24:50;8.10;;;2.40;;
27275;SDS011;14772;47.398;8.080;2022-12-22T05:29:47;9.30;;;2.50;;
27275;SDS011;14772;47.398;8.080;2022-12-22T05:34:45;7.07;;;2.17;;
27275;SDS011;14772;47.398;8.080;2022-12-22T05:39:42;9.47;;;2.60;;
27275;SDS011;14772;47.398;8.080;2022-12-22T05:44:40;7.70;;;2.10;;
27275;SDS011;14772;47.398;8.080;2022-12-22T05:49:38;7.07;;;2.10;;
27275;SDS011;14772;47.398;8.080;2022-12-22T05:54:35;6.80;;;2.17;;
27275;SDS011;14772;47.398;8.080;2022-12-22T05:59:33;6.40;;;1.87;;
27275;SDS011;14772;47.398;8.080;2022-12-22T06:04:30;5.67;;;1.80;;
27275;SDS011;14772;47.398;8.080;2022-12-22T06:09:28;8.47;;;2.13;;
27275;SDS011;14772;47.398;8.080;2022-12-22T06:14:25;5.37;;;1.80;;
27275;SDS011;14772;47.398;8.080;2022-12-22T06:19:22;6.60;;;1.80;;
27275;SDS011;14772;47.398;8.080;2022-12-22T06:24:19;10.27;;;2.30;;
27275;SDS011;14772;47.398;8.080;2022-12-22T06:29:17;8.90;;;2.00;;
27275;SDS011;14772;47.398;8.080;2022-12-22T06:34:14;7.67;;;2.07;;
27275;SDS011;14772;47.398;8.080;2022-12-22T06:39:11;7.40;;;1.80;;
27275;SDS011;14772;47.398;8.080;2022-12-22T06:44:09;9.63;;;2.00;;
27275;SDS011;14772;47.398;8.080;2022-12-22T06:49:06;8.10;;;2.00;;
27275;SDS011;14772;47.398;8.080;2022-12-22T06:54:04;8.77;;;2.03;;
27275;SDS011;14772;47.398;8.080;2022-12-22T06:59:01;6.93;;;2.10;;
27275;SDS011;14772;47.398;8.080;2022-12-22T07:03:58;8.17;;;2.10;;
27275;SDS011;14772;47.398;8.080;2022-12-22T07:08:56;8.30;;;1.93;;
27275;SDS011;14772;47.398;8.080;2022-12-22T07:13:53;6.03;;;1.80;;
27275;SDS011;14772;47.398;8.080;2022-12-22T07:18:50;6.43;;;2.00;;
27275;SDS011;14772;47.398;8.080;2022-12-22T07:23:47;4.43;;;1.60;;
27275;SDS011;14772;47.398;8.080;2022-12-22T07:28:45;7.13;;;2.07;;
27275;SDS011;14772;47.398;8.080;2022-12-22T07:33:42;6.27;;;1.73;;
27275;SDS011;14772;47.398;8.080;2022-12-22T07:38:40;7.33;;;1.80;;
27275;SDS011;14772;47.398;8.080;2022-12-22T07:43:39;6.57;;;1.97;;
27275;SDS011;14772;47.398;8.080;2022-12-22T07:48:36;9.37;;;2.20;;
27275;SDS011;14772;47.398;8.080;2022-12-22T07:53:33;7.77;;;2.03;;
27275;SDS011;14772;47.398;8.080;2022-12-22T07:58:30;7.97;;;2.13;;
27275;SDS011;14772;47.398;8.080;2022-12-22T08:03:28;6.37;;;1.70;;
27275;SDS011;14772;47.398;8.080;2022-12-22T08:08:25;7.40;;;1.73;;
27275;SDS011;14772;47.398;8.080;2022-12-22T08:13:22;6.03;;;1.70;;
27275;SDS011;14772;47.398;8.080;2022-12-22T08:18:20;8.67;;;1.90;;
27275;SDS011;14772;47.398;8.080;2022-12-22T08:23:17;10.93;;;2.00;;
27275;SDS011;14772;47.398;8.080;2022-12-22T08:28:15;5.60;;;1.80;;
27275;SDS011;14772;47.398;8.080;2022-12-22T08:33:13;6.83;;;2.00;;
27275;SDS011;14772;47.398;8.080;2022-12-22T08:38:10;8.43;;;1.90;;
27275;SDS011;14772;47.398;8.080;2022-12-22T08:43:09;10.07;;;2.00;;
27275;SDS011;14772;47.398;8.080;2022-12-22T08:48:07;6.13;;;1.90;;
27275;SDS011;14772;47.398;8.080;2022-12-22T08:53:05;8.50;;;2.10;;
27275;SDS011;14772;47.398;8.080;2022-12-22T08:58:03;9.10;;;2.23;;
27275;SDS011;14772;47.398;8.080;2022-12-22T09:03:00;13.00;;;2.27;;
27275;SDS011;14772;47.398;8.080;2022-12-22T09:07:58;10.87;;;2.30;;
27275;SDS011;14772;47.398;8.080;2022-12-22T09:12:55;9.90;;;2.37;;
27275;SDS011;14772;47.398;8.080;2022-12-22T09:17:53;8.70;;;2.10;;
27275;SDS011;14772;47.398;8.080;2022-12-22T09:22:50;10.93;;;2.10;;
27275;SDS011;14772;47.398;8.080;2022-12-22T09:27:48;11.63;;;2.20;;
27275;SDS011;14772;47.398;8.080;2022-12-22T09:32:45;13.53;;;3.20;;
27275;SDS011;14772;47.398;8.080;2022-12-22T09:37:42;10.53;;;2.30;;
27275;SDS011;14772;47.398;8.080;2022-12-22T09:42:39;10.40;;;2.40;;
27275;SDS011;14772;47.398;8.080;2022-12-22T09:47:37;11.70;;;2.07;;
27275;SDS011;14772;47.398;8.080;2022-12-22T09:52:39;9.90;;;2.10;;
27275;SDS011;14772;47.398;8.080;2022-12-22T09:57:40;9.70;;;2.17;;
27275;SDS011;14772;47.398;8.080;2022-12-22T10:02:39;10.80;;;2.23;;
27275;SDS011;14772;47.398;8.080;2022-12-22T10:07:39;10.93;;;2.13;;
27275;SDS011;14772;47.398;8.080;2022-12-22T10:12:37;10.10;;;2.20;;
27275;SDS011;14772;47.398;8.080;2022-12-22T10:17:34;17.20;;;2.47;;
27275;SDS011;14772;47.398;8.080;2022-12-22T10:22:32;13.73;;;2.47;;
27275;SDS011;14772;47.398;8.080;2022-12-22T10:27:33;12.57;;;2.50;;
27275;SDS011;14772;47.398;8.080;2022-12-22T10:32:32;15.33;;;2.97;;
27275;SDS011;14772;47.398;8.080;2022-12-22T10:37:33;13.17;;;2.50;;
27275;SDS011;14772;47.398;8.080;2022-12-22T10:48:08;13.53;;;2.43;;
27275;SDS011;14772;47.398;8.080;2022-12-22T10:53:06;15.03;;;2.53;;
27275;SDS011;14772;47.398;8.080;2022-12-22T10:58:13;11.67;;;2.30;;
27275;SDS011;14772;47.398;8.080;2022-12-22T11:03:11;10.83;;;2.30;;
27275;SDS011;14772;47.398;8.080;2022-12-22T11:08:13;14.83;;;2.30;;
27275;SDS011;14772;47.398;8.080;2022-12-22T11:13:19;11.37;;;2.30;;
27275;SDS011;14772;47.398;8.080;2022-12-22T11:18:30;12.03;;;2.50;;
27275;SDS011;14772;47.398;8.080;2022-12-22T11:23:43;13.63;;;2.60;;
27275;SDS011;14772;47.398;8.080;2022-12-22T11:28:47;13.63;;;2.20;;
27275;SDS011;14772;47.398;8.080;2022-12-22T11:33:57;10.10;;;2.10;;
27275;SDS011;14772;47.398;8.080;2022-12-22T11:39:02;11.87;;;2.10;;
27275;SDS011;14772;47.398;8.080;2022-12-22T11:44:05;11.43;;;2.23;;
27275;SDS011;14772;47.398;8.080;2022-12-22T11:49:35;11.30;;;2.20;;
27275;SDS011;14772;47.398;8.080;2022-12-22T11:54:52;12.73;;;2.07;;
27275;SDS011;14772;47.398;8.080;2022-12-22T11:59:58;10.80;;;1.80;;
27275;SDS011;14772;47.398;8.080;2022-12-22T12:05:02;11.60;;;2.23;;
27275;SDS011;14772;47.398;8.080;2022-12-22T12:10:13;11.53;;;2.30;;
27275;SDS011;14772;47.398;8.080;2022-12-22T12:15:22;14.17;;;2.60;;
27275;SDS011;14772;47.398;8.080;2022-12-22T12:20:28;14.33;;;2.10;;
27275;SDS011;14772;47.398;8.080;2022-12-22T12:25:36;11.83;;;2.30;;
27275;SDS011;14772;47.398;8.080;2022-12-22T12:30:38;10.63;;;2.20;;
27275;SDS011;14772;47.398;8.080;2022-12-22T12:35:44;9.60;;;1.87;;
27275;SDS011;14772;47.398;8.080;2022-12-22T12:40:46;11.40;;;1.90;;
27275;SDS011;14772;47.398;8.080;2022-12-22T12:45:47;7.53;;;1.73;;
27275;SDS011;14772;47.398;8.080;2022-12-22T12:50:44;9.50;;;2.00;;
27275;SDS011;14772;47.398;8.080;2022-12-22T12:55:52;8.37;;;1.67;;
27275;SDS011;14772;47.398;8.080;2022-12-22T13:00:51;10.33;;;2.10;;
27275;SDS011;14772;47.398;8.080;2022-12-22T13:05:48;10.60;;;2.17;;
27275;SDS011;14772;47.398;8.080;2022-12-22T13:11:15;11.03;;;2.23;;
27275;SDS011;14772;47.398;8.080;2022-12-22T13:16:27;10.07;;;2.03;;
27275;SDS011;14772;47.398;8.080;2022-12-22T13:21:29;11.83;;;2.20;;
27275;SDS011;14772;47.398;8.080;2022-12-22T13:26:37;10.00;;;2.10;;
27275;SDS011;14772;47.398;8.080;2022-12-22T13:31:39;12.23;;;2.30;;
27275;SDS011;14772;47.398;8.080;2022-12-22T13:36:36;10.77;;;2.20;;
27275;SDS011;14772;47.398;8.080;2022-12-22T13:41:35;9.50;;;2.07;;
27275;SDS011;14772;47.398;8.080;2022-12-22T13:46:35;11.23;;;2.10;;
27275;SDS011;14772;47.398;8.080;2022-12-22T13:51:34;11.20;;;2.07;;
27275;SDS011;14772;47.398;8.080;2022-12-22T13:56:34;12.30;;;2.30;;
27275;SDS011;14772;47.398;8.080;2022-12-22T14:01:34;10.63;;;2.10;;
27275;SDS011;14772;47.398;8.080;2022-12-22T14:06:34;13.30;;;2.70;;
27275;SDS011;14772;47.398;8.080;2022-12-22T14:11:32;12.37;;;2.90;;
27275;SDS011;14772;47.398;8.080;2022-12-22T14:16:29;10.93;;;2.30;;
27275;SDS011;14772;47.398;8.080;2022-12-22T14:21:26;12.57;;;2.50;;
27275;SDS011;14772;47.398;8.080;2022-12-22T14:26:25;10.77;;;2.27;;
27275;SDS011;14772;47.398;8.080;2022-12-22T14:31:24;12.87;;;2.60;;
27275;SDS011;14772;47.398;8.080;2022-12-22T14:36:22;12.03;;;2.30;;
27275;SDS011;14772;47.398;8.080;2022-12-22T14:41:25;15.27;;;2.50;;
27275;SDS011;14772;47.398;8.080;2022-12-22T14:46:25;11.70;;;2.23;;
27275;SDS011;14772;47.398;8.080;2022-12-22T14:51:22;12.40;;;2.30;;
27275;SDS011;14772;47.398;8.080;2022-12-22T14:56:20;12.40;;;2.47;;
27275;SDS011;14772;47.398;8.080;2022-12-22T15:01:20;9.97;;;2.17;;
27275;SDS011;14772;47.398;8.080;2022-12-22T15:06:21;12.73;;;2.20;;
27275;SDS011;14772;47.398;8.080;2022-12-22T15:11:22;11.43;;;2.30;;
27275;SDS011;14772;47.398;8.080;2022-12-22T15:16:20;11.57;;;2.53;;
27275;SDS011;14772;47.398;8.080;2022-12-22T15:21:18;12.80;;;2.67;;
27275;SDS011;14772;47.398;8.080;2022-12-22T15:26:16;13.50;;;2.63;;
27275;SDS011;14772;47.398;8.080;2022-12-22T15:31:14;13.00;;;2.43;;
27275;SDS011;14772;47.398;8.080;2022-12-22T15:36:13;12.57;;;2.57;;
27275;SDS011;14772;47.398;8.080;2022-12-22T15:41:10;16.97;;;2.80;;
27275;SDS011;14772;47.398;8.080;2022-12-22T15:46:09;13.60;;;2.60;;
27275;SDS011;14772;47.398;8.080;2022-12-22T15:51:13;14.37;;;3.10;;
27275;SDS011;14772;47.398;8.080;2022-12-22T15:56:13;14.97;;;2.77;;
27275;SDS011;14772;47.398;8.080;2022-12-22T16:01:12;12.50;;;2.60;;
27275;SDS011;14772;47.398;8.080;2022-12-22T16:06:09;13.70;;;2.80;;
27275;SDS011;14772;47.398;8.080;2022-12-22T16:11:09;13.77;;;3.40;;
27275;SDS011;14772;47.398;8.080;2022-12-22T16:16:06;15.17;;;3.20;;
27275;SDS011;14772;47.398;8.080;2022-12-22T16:21:04;13.57;;;2.63;;
27275;SDS011;14772;47.398;8.080;2022-12-22T16:26:04;15.90;;;3.27;;
27275;SDS011;14772;47.398;8.080;2022-12-22T16:31:02;17.03;;;2.83;;
27275;SDS011;14772;47.398;8.080;2022-12-22T16:35:59;15.23;;;2.80;;
27275;SDS011;14772;47.398;8.080;2022-12-22T16:40:56;16.03;;;3.20;;
27275;SDS011;14772;47.398;8.080;2022-12-22T16:45:53;14.53;;;3.00;;
27275;SDS011;14772;47.398;8.080;2022-12-22T16:50:52;10.90;;;2.57;;
27275;SDS011;14772;47.398;8.080;2022-12-22T16:55:49;15.50;;;3.27;;
27275;SDS011;14772;47.398;8.080;2022-12-22T17:00:46;12.33;;;2.73;;
27275;SDS011;14772;47.398;8.080;2022-12-22T17:05:44;14.07;;;3.17;;
27275;SDS011;14772;47.398;8.080;2022-12-22T17:10:43;15.00;;;3.27;;
27275;SDS011;14772;47.398;8.080;2022-12-22T17:15:41;13.40;;;2.90;;
27275;SDS011;14772;47.398;8.080;2022-12-22T17:20:39;15.27;;;2.93;;
27275;SDS011;14772;47.398;8.080;2022-12-22T17:25:36;15.23;;;2.60;;
27275;SDS011;14772;47.398;8.080;2022-12-22T17:30:35;15.17;;;3.30;;
27275;SDS011;14772;47.398;8.080;2022-12-22T17:35:34;15.13;;;3.10;;
27275;SDS011;14772;47.398;8.080;2022-12-22T17:40:32;14.47;;;2.73;;
27275;SDS011;14772;47.398;8.080;2022-12-22T17:45:29;20.20;;;3.40;;
27275;SDS011;14772;47.398;8.080;2022-12-22T17:50:26;16.20;;;3.30;;
27275;SDS011;14772;47.398;8.080;2022-12-22T17:55:25;15.27;;;2.93;;
27275;SDS011;14772;47.398;8.080;2022-12-22T18:00:24;15.27;;;3.30;;
27275;SDS011;14772;47.398;8.080;2022-12-22T18:05:24;15.53;;;3.27;;
27275;SDS011;14772;47.398;8.080;2022-12-22T18:10:24;15.87;;;3.40;;
27275;SDS011;14772;47.398;8.080;2022-12-22T18:15:24;17.70;;;3.70;;
27275;SDS011;14772;47.398;8.080;2022-12-22T18:20:24;16.57;;;3.03;;
27275;SDS011;14772;47.398;8.080;2022-12-22T18:25:23;14.20;;;3.00;;
27275;SDS011;14772;47.398;8.080;2022-12-22T18:30:30;14.50;;;3.70;;
27275;SDS011;14772;47.398;8.080;2022-12-22T18:35:28;15.43;;;3.63;;
27275;SDS011;14772;47.398;8.080;2022-12-22T18:40:26;16.23;;;3.10;;
27275;SDS011;14772;47.398;8.080;2022-12-22T18:45:25;14.07;;;2.90;;
27275;SDS011;14772;47.398;8.080;2022-12-22T18:50:24;18.70;;;3.50;;
27275;SDS011;14772;47.398;8.080;2022-12-22T18:55:23;18.43;;;3.40;;
27275;SDS011;14772;47.398;8.080;2022-12-22T19:00:23;18.00;;;3.00;;
27275;SDS011;14772;47.398;8.080;2022-12-22T19:05:22;18.93;;;3.10;;
27275;SDS011;14772;47.398;8.080;2022-12-22T19:10:22;18.17;;;3.40;;
27275;SDS011;14772;47.398;8.080;2022-12-22T19:15:24;17.20;;;3.63;;
27275;SDS011;14772;47.398;8.080;2022-12-22T19:20:23;20.60;;;3.30;;
27275;SDS011;14772;47.398;8.080;2022-12-22T19:25:21;15.87;;;3.50;;
27275;SDS011;14772;47.398;8.080;2022-12-22T19:30:22;14.20;;;3.43;;
27275;SDS011;14772;47.398;8.080;2022-12-22T19:35:22;16.53;;;3.50;;
27275;SDS011;14772;47.398;8.080;2022-12-22T19:40:20;20.47;;;3.37;;
27275;SDS011;14772;47.398;8.080;2022-12-22T19:45:18;16.83;;;3.40;;
27275;SDS011;14772;47.398;8.080;2022-12-22T19:50:19;19.20;;;3.40;;
27275;SDS011;14772;47.398;8.080;2022-12-22T19:55:17;15.27;;;3.37;;
27275;SDS011;14772;47.398;8.080;2022-12-22T20:00:16;14.23;;;3.00;;
27275;SDS011;14772;47.398;8.080;2022-12-22T20:05:28;18.07;;;3.07;;
27275;SDS011;14772;47.398;8.080;2022-12-22T20:10:28;16.20;;;3.40;;
27275;SDS011;14772;47.398;8.080;2022-12-22T20:15:28;19.60;;;3.60;;
27275;SDS011;14772;47.398;8.080;2022-12-22T20:20:30;16.97;;;3.20;;
27275;SDS011;14772;47.398;8.080;2022-12-22T20:25:31;15.80;;;3.27;;
27275;SDS011;14772;47.398;8.080;2022-12-22T20:30:32;15.50;;;3.53;;
27275;SDS011;14772;47.398;8.080;2022-12-22T20:35:29;16.77;;;3.23;;
27275;SDS011;14772;47.398;8.080;2022-12-22T20:40:28;12.60;;;2.57;;
27275;SDS011;14772;47.398;8.080;2022-12-22T20:45:26;9.03;;;2.30;;
27275;SDS011;14772;47.398;8.080;2022-12-22T20:50:26;11.63;;;2.30;;
27275;SDS011;14772;47.398;8.080;2022-12-22T20:55:26;8.97;;;1.93;;
27275;SDS011;14772;47.398;8.080;2022-12-22T21:00:25;10.90;;;2.60;;
27275;SDS011;14772;47.398;8.080;2022-12-22T21:05:23;12.70;;;2.87;;
27275;SDS011;14772;47.398;8.080;2022-12-22T21:10:21;12.23;;;2.50;;
27275;SDS011;14772;47.398;8.080;2022-12-22T21:15:20;9.47;;;2.30;;
27275;SDS011;14772;47.398;8.080;2022-12-22T21:20:20;10.17;;;2.20;;
27275;SDS011;14772;47.398;8.080;2022-12-22T21:25:19;12.93;;;2.63;;
27275;SDS011;14772;47.398;8.080;2022-12-22T21:30:17;10.57;;;2.30;;
27275;SDS011;14772;47.398;8.080;2022-12-22T21:35:16;11.77;;;2.40;;
27275;SDS011;14772;47.398;8.080;2022-12-22T21:40:17;9.63;;;2.10;;
27275;SDS011;14772;47.398;8.080;2022-12-22T21:45:17;10.77;;;2.13;;
27275;SDS011;14772;47.398;8.080;2022-12-22T21:50:20;10.63;;;2.60;;
27275;SDS011;14772;47.398;8.080;2022-12-22T21:55:20;9.23;;;2.10;;
27275;SDS011;14772;47.398;8.080;2022-12-22T22:00:20;11.03;;;2.10;;
27275;SDS011;14772;47.398;8.080;2022-12-22T22:05:23;10.13;;;2.27;;
27275;SDS011;14772;47.398;8.080;2022-12-22T22:10:23;8.33;;;2.20;;
27275;SDS011;14772;47.398;8.080;2022-12-22T22:15:22;12.27;;;2.87;;
27275;SDS011;14772;47.398;8.080;2022-12-22T22:20:21;8.13;;;2.10;;
27275;SDS011;14772;47.398;8.080;2022-12-22T22:25:20;7.50;;;2.00;;
27275;SDS011;14772;47.398;8.080;2022-12-22T22:30:19;7.57;;;2.03;;
27275;SDS011;14772;47.398;8.080;2022-12-22T22:35:18;5.43;;;1.80;;
27275;SDS011;14772;47.398;8.080;2022-12-22T22:40:17;6.23;;;1.73;;
27275;SDS011;14772;47.398;8.080;2022-12-22T22:45:17;5.90;;;1.70;;
27275;SDS011;14772;47.398;8.080;2022-12-22T22:50:14;9.60;;;1.80;;
27275;SDS011;14772;47.398;8.080;2022-12-22T22:55:12;7.10;;;1.80;;
27275;SDS011;14772;47.398;8.080;2022-12-22T23:00:11;6.03;;;1.60;;
27275;SDS011;14772;47.398;8.080;2022-12-22T23:05:11;4.87;;;1.40;;
27275;SDS011;14772;47.398;8.080;2022-12-22T23:10:09;4.97;;;1.70;;
27275;SDS011;14772;47.398;8.080;2022-12-22T23:15:09;4.90;;;1.47;;
27275;SDS011;14772;47.398;8.080;2022-12-22T23:20:08;4.90;;;1.60;;
27275;SDS011;14772;47.398;8.080;2022-12-22T23:25:06;3.50;;;1.40;;
27275;SDS011;14772;47.398;8.080;2022-12-22T23:30:06;2.30;;;1.30;;
27275;SDS011;14772;47.398;8.080;2022-12-22T23:35:05;3.37;;;1.30;;
27275;SDS011;14772;47.398;8.080;2022-12-22T23:40:03;4.93;;;1.33;;
27275;SDS011;14772;47.398;8.080;2022-12-22T23:45:03;3.07;;;1.30;;
27275;SDS011;14772;47.398;8.080;2022-12-22T23:50:01;2.57;;;1.20;;
27275;SDS011;14772;47.398;8.080;2022-12-22T23:54:58;2.00;;;1.20;;
27275;SDS011;14772;47.398;8.080;2022-12-22T23:59:55;3.67;;;1.40;;
